sensor_id;sensor_type;location;lat;lon;timestamp;P1;durP1;ratioP1;P2;durP2;ratioP2
41343;SDS011;27089;50.022;7.604;2023-12-14T00:02:01;7.93;;;5.73;;
41343;SDS011;27089;50.022;7.604;2023-12-14T00:04:28;9.93;;;5.60;;
41343;SDS011;27089;50.022;7.604;2023-12-14T00:06:55;10.63;;;5.87;;
41343;SDS011;27089;50.022;7.604;2023-12-14T00:09:22;9.50;;;6.13;;
41343;SDS011;27089;50.022;7.604;2023-12-14T00:11:50;9.10;;;6.33;;
41343;SDS011;27089;50.022;7.604;2023-12-14T00:14:17;12.17;;;6.90;;
41343;SDS011;27089;50.022;7.604;2023-12-14T00:16:44;10.07;;;6.60;;
41343;SDS011;27089;50.022;7.604;2023-12-14T00:19:11;8.83;;;5.97;;
41343;SDS011;27089;50.022;7.604;2023-12-14T00:21:38;10.13;;;7.50;;
41343;SDS011;27089;50.022;7.604;2023-12-14T00:24:05;10.83;;;6.43;;
41343;SDS011;27089;50.022;7.604;2023-12-14T00:26:32;10.47;;;6.07;;
41343;SDS011;27089;50.022;7.604;2023-12-14T00:29:00;11.97;;;6.83;;
41343;SDS011;27089;50.022;7.604;2023-12-14T00:31:27;10.00;;;6.40;;
41343;SDS011;27089;50.022;7.604;2023-12-14T00:33:54;10.93;;;6.20;;
41343;SDS011;27089;50.022;7.604;2023-12-14T00:36:21;13.50;;;6.50;;
41343;SDS011;27089;50.022;7.604;2023-12-14T00:38:48;8.83;;;5.80;;
41343;SDS011;27089;50.022;7.604;2023-12-14T00:41:15;10.23;;;6.43;;
41343;SDS011;27089;50.022;7.604;2023-12-14T00:43:42;10.93;;;7.40;;
41343;SDS011;27089;50.022;7.604;2023-12-14T00:46:14;22.33;;;12.63;;
41343;SDS011;27089;50.022;7.604;2023-12-14T00:48:41;29.60;;;17.33;;
41343;SDS011;27089;50.022;7.604;2023-12-14T00:51:08;25.77;;;20.27;;
41343;SDS011;27089;50.022;7.604;2023-12-14T00:53:35;17.33;;;10.97;;
41343;SDS011;27089;50.022;7.604;2023-12-14T00:56:02;18.53;;;11.37;;
41343;SDS011;27089;50.022;7.604;2023-12-14T00:58:29;16.23;;;10.40;;
41343;SDS011;27089;50.022;7.604;2023-12-14T01:00:56;9.27;;;6.07;;
41343;SDS011;27089;50.022;7.604;2023-12-14T01:03:24;9.43;;;6.10;;
41343;SDS011;27089;50.022;7.604;2023-12-14T01:05:51;8.67;;;6.20;;
41343;SDS011;27089;50.022;7.604;2023-12-14T01:08:18;10.70;;;6.07;;
41343;SDS011;27089;50.022;7.604;2023-12-14T01:10:45;24.57;;;12.37;;
41343;SDS011;27089;50.022;7.604;2023-12-14T01:13:12;29.13;;;14.60;;
41343;SDS011;27089;50.022;7.604;2023-12-14T01:15:39;13.20;;;7.13;;
41343;SDS011;27089;50.022;7.604;2023-12-14T01:18:06;7.40;;;4.27;;
41343;SDS011;27089;50.022;7.604;2023-12-14T01:20:34;9.60;;;5.17;;
41343;SDS011;27089;50.022;7.604;2023-12-14T01:23:01;11.43;;;5.07;;
41343;SDS011;27089;50.022;7.604;2023-12-14T01:25:28;12.30;;;6.13;;
41343;SDS011;27089;50.022;7.604;2023-12-14T01:27:55;16.80;;;6.23;;
41343;SDS011;27089;50.022;7.604;2023-12-14T01:30:22;12.77;;;6.17;;
41343;SDS011;27089;50.022;7.604;2023-12-14T01:32:49;13.07;;;6.37;;
41343;SDS011;27089;50.022;7.604;2023-12-14T01:35:17;14.63;;;7.33;;
41343;SDS011;27089;50.022;7.604;2023-12-14T01:37:46;19.17;;;7.10;;
41343;SDS011;27089;50.022;7.604;2023-12-14T01:40:13;34.43;;;7.70;;
41343;SDS011;27089;50.022;7.604;2023-12-14T01:42:42;24.17;;;6.70;;
41343;SDS011;27089;50.022;7.604;2023-12-14T01:45:10;21.87;;;6.77;;
41343;SDS011;27089;50.022;7.604;2023-12-14T01:47:38;29.50;;;6.47;;
41343;SDS011;27089;50.022;7.604;2023-12-14T01:50:06;24.20;;;7.00;;
41343;SDS011;27089;50.022;7.604;2023-12-14T01:52:33;37.13;;;7.10;;
41343;SDS011;27089;50.022;7.604;2023-12-14T01:55:02;19.60;;;7.30;;
41343;SDS011;27089;50.022;7.604;2023-12-14T01:57:30;20.83;;;9.13;;
41343;SDS011;27089;50.022;7.604;2023-12-14T01:59:57;19.40;;;8.67;;
41343;SDS011;27089;50.022;7.604;2023-12-14T02:02:24;24.70;;;8.67;;
41343;SDS011;27089;50.022;7.604;2023-12-14T02:04:51;18.37;;;8.40;;
41343;SDS011;27089;50.022;7.604;2023-12-14T02:07:18;17.33;;;7.73;;
41343;SDS011;27089;50.022;7.604;2023-12-14T02:09:44;20.07;;;8.10;;
41343;SDS011;27089;50.022;7.604;2023-12-14T02:12:13;15.20;;;7.00;;
41343;SDS011;27089;50.022;7.604;2023-12-14T02:14:40;18.63;;;8.10;;
41343;SDS011;27089;50.022;7.604;2023-12-14T02:17:07;18.07;;;7.23;;
41343;SDS011;27089;50.022;7.604;2023-12-14T02:19:34;15.83;;;6.53;;
41343;SDS011;27089;50.022;7.604;2023-12-14T02:22:01;19.53;;;6.67;;
41343;SDS011;27089;50.022;7.604;2023-12-14T02:24:29;14.37;;;6.33;;
41343;SDS011;27089;50.022;7.604;2023-12-14T02:26:56;16.00;;;7.57;;
41343;SDS011;27089;50.022;7.604;2023-12-14T02:29:23;17.20;;;7.13;;
41343;SDS011;27089;50.022;7.604;2023-12-14T02:31:50;15.20;;;6.37;;
41343;SDS011;27089;50.022;7.604;2023-12-14T02:34:17;22.07;;;7.30;;
41343;SDS011;27089;50.022;7.604;2023-12-14T02:36:45;23.17;;;7.63;;
41343;SDS011;27089;50.022;7.604;2023-12-14T02:39:12;22.27;;;8.53;;
41343;SDS011;27089;50.022;7.604;2023-12-14T02:41:41;23.17;;;8.00;;
41343;SDS011;27089;50.022;7.604;2023-12-14T02:44:08;29.00;;;8.77;;
41343;SDS011;27089;50.022;7.604;2023-12-14T02:46:35;24.43;;;7.67;;
41343;SDS011;27089;50.022;7.604;2023-12-14T02:49:01;23.87;;;7.73;;
41343;SDS011;27089;50.022;7.604;2023-12-14T02:51:28;27.10;;;8.93;;
41343;SDS011;27089;50.022;7.604;2023-12-14T02:53:55;25.77;;;7.37;;
41343;SDS011;27089;50.022;7.604;2023-12-14T02:56:23;29.67;;;8.17;;
41343;SDS011;27089;50.022;7.604;2023-12-14T02:58:51;27.93;;;8.80;;
41343;SDS011;27089;50.022;7.604;2023-12-14T03:01:19;37.37;;;8.53;;
41343;SDS011;27089;50.022;7.604;2023-12-14T03:03:46;25.80;;;8.67;;
41343;SDS011;27089;50.022;7.604;2023-12-14T03:06:13;29.73;;;8.17;;
41343;SDS011;27089;50.022;7.604;2023-12-14T03:08:40;17.07;;;8.57;;
41343;SDS011;27089;50.022;7.604;2023-12-14T03:11:07;18.73;;;8.30;;
41343;SDS011;27089;50.022;7.604;2023-12-14T03:13:34;14.73;;;7.43;;
41343;SDS011;27089;50.022;7.604;2023-12-14T03:16:03;23.73;;;8.10;;
41343;SDS011;27089;50.022;7.604;2023-12-14T03:18:30;29.97;;;8.63;;
41343;SDS011;27089;50.022;7.604;2023-12-14T03:20:57;19.73;;;8.07;;
41343;SDS011;27089;50.022;7.604;2023-12-14T03:23:24;58.97;;;8.97;;
41343;SDS011;27089;50.022;7.604;2023-12-14T03:25:51;31.50;;;9.10;;
41343;SDS011;27089;50.022;7.604;2023-12-14T03:28:18;32.67;;;8.27;;
41343;SDS011;27089;50.022;7.604;2023-12-14T03:30:45;53.27;;;9.07;;
41343;SDS011;27089;50.022;7.604;2023-12-14T03:33:13;25.13;;;7.97;;
41343;SDS011;27089;50.022;7.604;2023-12-14T03:35:40;32.10;;;8.67;;
41343;SDS011;27089;50.022;7.604;2023-12-14T03:38:08;28.70;;;8.67;;
41343;SDS011;27089;50.022;7.604;2023-12-14T03:40:35;22.50;;;8.73;;
41343;SDS011;27089;50.022;7.604;2023-12-14T03:43:02;24.10;;;10.53;;
41343;SDS011;27089;50.022;7.604;2023-12-14T03:45:29;29.60;;;12.57;;
41343;SDS011;27089;50.022;7.604;2023-12-14T03:47:55;33.27;;;12.80;;
41343;SDS011;27089;50.022;7.604;2023-12-14T03:50:24;25.20;;;10.70;;
41343;SDS011;27089;50.022;7.604;2023-12-14T03:52:51;30.10;;;13.33;;
41343;SDS011;27089;50.022;7.604;2023-12-14T03:55:18;34.97;;;15.40;;
41343;SDS011;27089;50.022;7.604;2023-12-14T03:57:44;25.60;;;11.73;;
41343;SDS011;27089;50.022;7.604;2023-12-14T04:00:12;23.10;;;9.70;;
41343;SDS011;27089;50.022;7.604;2023-12-14T04:02:39;38.83;;;10.17;;
41343;SDS011;27089;50.022;7.604;2023-12-14T04:05:07;27.67;;;8.90;;
41343;SDS011;27089;50.022;7.604;2023-12-14T04:07:36;19.00;;;8.80;;
41343;SDS011;27089;50.022;7.604;2023-12-14T04:10:05;18.37;;;9.50;;
41343;SDS011;27089;50.022;7.604;2023-12-14T04:12:33;19.10;;;9.60;;
41343;SDS011;27089;50.022;7.604;2023-12-14T04:15:00;14.17;;;7.70;;
41343;SDS011;27089;50.022;7.604;2023-12-14T04:17:27;14.83;;;8.13;;
41343;SDS011;27089;50.022;7.604;2023-12-14T04:19:54;18.77;;;8.17;;
41343;SDS011;27089;50.022;7.604;2023-12-14T04:22:21;18.73;;;8.47;;
41343;SDS011;27089;50.022;7.604;2023-12-14T04:24:49;17.10;;;8.37;;
41343;SDS011;27089;50.022;7.604;2023-12-14T04:27:16;18.87;;;8.73;;
41343;SDS011;27089;50.022;7.604;2023-12-14T04:29:43;15.83;;;8.37;;
41343;SDS011;27089;50.022;7.604;2023-12-14T04:32:10;17.03;;;8.40;;
41343;SDS011;27089;50.022;7.604;2023-12-14T04:34:37;16.17;;;8.33;;
41343;SDS011;27089;50.022;7.604;2023-12-14T04:37:04;16.67;;;7.43;;
41343;SDS011;27089;50.022;7.604;2023-12-14T04:39:31;15.83;;;8.27;;
41343;SDS011;27089;50.022;7.604;2023-12-14T04:42:00;16.20;;;8.27;;
41343;SDS011;27089;50.022;7.604;2023-12-14T04:44:27;16.57;;;8.23;;
41343;SDS011;27089;50.022;7.604;2023-12-14T04:46:53;16.23;;;7.03;;
41343;SDS011;27089;50.022;7.604;2023-12-14T04:49:21;15.80;;;6.93;;
41343;SDS011;27089;50.022;7.604;2023-12-14T04:51:48;14.30;;;7.30;;
41343;SDS011;27089;50.022;7.604;2023-12-14T04:54:14;17.50;;;8.10;;
41343;SDS011;27089;50.022;7.604;2023-12-14T04:56:41;15.53;;;7.33;;
41343;SDS011;27089;50.022;7.604;2023-12-14T04:59:13;15.23;;;7.63;;
41343;SDS011;27089;50.022;7.604;2023-12-14T05:01:40;18.13;;;8.17;;
41343;SDS011;27089;50.022;7.604;2023-12-14T05:04:06;14.77;;;7.63;;
41343;SDS011;27089;50.022;7.604;2023-12-14T05:06:33;15.13;;;7.47;;
41343;SDS011;27089;50.022;7.604;2023-12-14T05:09:00;14.40;;;8.23;;
41343;SDS011;27089;50.022;7.604;2023-12-14T05:11:29;16.70;;;7.80;;
41343;SDS011;27089;50.022;7.604;2023-12-14T05:13:56;13.40;;;8.07;;
41343;SDS011;27089;50.022;7.604;2023-12-14T05:16:24;13.83;;;7.27;;
41343;SDS011;27089;50.022;7.604;2023-12-14T05:18:52;13.90;;;7.17;;
41343;SDS011;27089;50.022;7.604;2023-12-14T05:21:19;15.93;;;8.63;;
41343;SDS011;27089;50.022;7.604;2023-12-14T05:23:46;12.20;;;7.23;;
41343;SDS011;27089;50.022;7.604;2023-12-14T05:26:13;16.00;;;8.77;;
41343;SDS011;27089;50.022;7.604;2023-12-14T05:28:40;13.83;;;7.87;;
41343;SDS011;27089;50.022;7.604;2023-12-14T05:31:07;11.53;;;7.40;;
41343;SDS011;27089;50.022;7.604;2023-12-14T05:33:37;16.33;;;7.30;;
41343;SDS011;27089;50.022;7.604;2023-12-14T05:36:05;12.80;;;7.00;;
41343;SDS011;27089;50.022;7.604;2023-12-14T05:38:35;13.27;;;6.90;;
41343;SDS011;27089;50.022;7.604;2023-12-14T05:41:02;13.07;;;7.03;;
41343;SDS011;27089;50.022;7.604;2023-12-14T05:43:30;12.70;;;7.03;;
41343;SDS011;27089;50.022;7.604;2023-12-14T05:45:57;13.60;;;7.13;;
41343;SDS011;27089;50.022;7.604;2023-12-14T05:48:24;12.73;;;6.63;;
41343;SDS011;27089;50.022;7.604;2023-12-14T05:50:54;10.67;;;7.80;;
41343;SDS011;27089;50.022;7.604;2023-12-14T05:53:22;11.83;;;7.57;;
41343;SDS011;27089;50.022;7.604;2023-12-14T05:55:49;9.27;;;6.80;;
41343;SDS011;27089;50.022;7.604;2023-12-14T05:58:16;9.77;;;6.77;;
41343;SDS011;27089;50.022;7.604;2023-12-14T06:00:43;11.93;;;6.47;;
41343;SDS011;27089;50.022;7.604;2023-12-14T06:03:10;9.00;;;6.43;;
41343;SDS011;27089;50.022;7.604;2023-12-14T06:05:37;11.50;;;6.13;;
41343;SDS011;27089;50.022;7.604;2023-12-14T06:08:06;9.33;;;6.00;;
41343;SDS011;27089;50.022;7.604;2023-12-14T06:10:32;11.97;;;6.33;;
41343;SDS011;27089;50.022;7.604;2023-12-14T06:12:59;9.80;;;6.63;;
41343;SDS011;27089;50.022;7.604;2023-12-14T06:15:26;13.63;;;8.80;;
41343;SDS011;27089;50.022;7.604;2023-12-14T06:17:53;15.17;;;10.30;;
41343;SDS011;27089;50.022;7.604;2023-12-14T06:20:20;16.10;;;9.20;;
41343;SDS011;27089;50.022;7.604;2023-12-14T06:22:48;17.40;;;10.17;;
41343;SDS011;27089;50.022;7.604;2023-12-14T06:25:16;15.80;;;10.87;;
41343;SDS011;27089;50.022;7.604;2023-12-14T06:27:43;17.27;;;10.53;;
41343;SDS011;27089;50.022;7.604;2023-12-14T06:30:11;53.90;;;34.87;;
41343;SDS011;27089;50.022;7.604;2023-12-14T06:32:38;61.90;;;36.13;;
41343;SDS011;27089;50.022;7.604;2023-12-14T06:35:05;60.07;;;38.37;;
41343;SDS011;27089;50.022;7.604;2023-12-14T06:37:33;36.47;;;22.83;;
41343;SDS011;27089;50.022;7.604;2023-12-14T06:39:59;18.37;;;13.00;;
41343;SDS011;27089;50.022;7.604;2023-12-14T06:42:28;39.47;;;24.10;;
41343;SDS011;27089;50.022;7.604;2023-12-14T06:44:56;22.30;;;13.80;;
41343;SDS011;27089;50.022;7.604;2023-12-14T06:47:22;19.70;;;12.83;;
41343;SDS011;27089;50.022;7.604;2023-12-14T06:49:49;16.93;;;12.40;;
41343;SDS011;27089;50.022;7.604;2023-12-14T06:52:16;31.20;;;22.07;;
41343;SDS011;27089;50.022;7.604;2023-12-14T06:54:43;20.23;;;15.83;;
41343;SDS011;27089;50.022;7.604;2023-12-14T06:57:10;17.07;;;11.60;;
41343;SDS011;27089;50.022;7.604;2023-12-14T06:59:39;19.90;;;12.90;;
41343;SDS011;27089;50.022;7.604;2023-12-14T07:02:06;23.10;;;14.37;;
41343;SDS011;27089;50.022;7.604;2023-12-14T07:04:33;19.73;;;12.93;;
41343;SDS011;27089;50.022;7.604;2023-12-14T07:07:00;20.87;;;12.33;;
41343;SDS011;27089;50.022;7.604;2023-12-14T07:09:28;22.67;;;13.47;;
41343;SDS011;27089;50.022;7.604;2023-12-14T07:11:54;18.47;;;11.43;;
41343;SDS011;27089;50.022;7.604;2023-12-14T07:14:21;19.07;;;11.40;;
41343;SDS011;27089;50.022;7.604;2023-12-14T07:16:50;20.07;;;11.57;;
41343;SDS011;27089;50.022;7.604;2023-12-14T07:19:17;20.03;;;12.00;;
41343;SDS011;27089;50.022;7.604;2023-12-14T07:21:44;21.07;;;12.47;;
41343;SDS011;27089;50.022;7.604;2023-12-14T07:24:10;22.60;;;13.00;;
41343;SDS011;27089;50.022;7.604;2023-12-14T07:26:37;20.47;;;12.83;;
41343;SDS011;27089;50.022;7.604;2023-12-14T07:29:05;18.37;;;10.80;;
41343;SDS011;27089;50.022;7.604;2023-12-14T07:31:32;17.23;;;10.87;;
41343;SDS011;27089;50.022;7.604;2023-12-14T07:34:00;17.60;;;11.07;;
41343;SDS011;27089;50.022;7.604;2023-12-14T07:36:27;17.13;;;11.43;;
41343;SDS011;27089;50.022;7.604;2023-12-14T07:38:54;16.73;;;10.70;;
41343;SDS011;27089;50.022;7.604;2023-12-14T07:41:21;18.27;;;12.57;;
41343;SDS011;27089;50.022;7.604;2023-12-14T07:43:51;18.10;;;11.23;;
41343;SDS011;27089;50.022;7.604;2023-12-14T07:46:18;19.23;;;13.13;;
41343;SDS011;27089;50.022;7.604;2023-12-14T07:48:45;14.73;;;9.37;;
41343;SDS011;27089;50.022;7.604;2023-12-14T07:51:13;15.67;;;9.60;;
41343;SDS011;27089;50.022;7.604;2023-12-14T07:53:40;14.87;;;9.87;;
41343;SDS011;27089;50.022;7.604;2023-12-14T07:56:08;14.70;;;8.67;;
41343;SDS011;27089;50.022;7.604;2023-12-14T07:58:35;13.63;;;9.23;;
41343;SDS011;27089;50.022;7.604;2023-12-14T08:01:02;14.63;;;9.20;;
41343;SDS011;27089;50.022;7.604;2023-12-14T08:03:29;14.30;;;9.60;;
41343;SDS011;27089;50.022;7.604;2023-12-14T08:05:56;15.77;;;9.80;;
41343;SDS011;27089;50.022;7.604;2023-12-14T08:08:24;15.70;;;9.67;;
41343;SDS011;27089;50.022;7.604;2023-12-14T08:10:51;17.37;;;9.97;;
41343;SDS011;27089;50.022;7.604;2023-12-14T08:13:18;16.27;;;10.77;;
41343;SDS011;27089;50.022;7.604;2023-12-14T08:15:45;18.47;;;11.20;;
41343;SDS011;27089;50.022;7.604;2023-12-14T08:18:12;16.57;;;10.07;;
41343;SDS011;27089;50.022;7.604;2023-12-14T08:20:39;18.10;;;10.97;;
41343;SDS011;27089;50.022;7.604;2023-12-14T08:23:06;17.07;;;10.60;;
41343;SDS011;27089;50.022;7.604;2023-12-14T08:25:34;16.53;;;11.53;;
41343;SDS011;27089;50.022;7.604;2023-12-14T08:28:01;16.87;;;10.03;;
41343;SDS011;27089;50.022;7.604;2023-12-14T08:30:28;17.23;;;10.30;;
41343;SDS011;27089;50.022;7.604;2023-12-14T08:32:55;17.73;;;9.60;;
41343;SDS011;27089;50.022;7.604;2023-12-14T08:35:22;16.63;;;9.10;;
41343;SDS011;27089;50.022;7.604;2023-12-14T08:37:49;17.87;;;10.90;;
41343;SDS011;27089;50.022;7.604;2023-12-14T08:40:16;17.00;;;10.20;;
41343;SDS011;27089;50.022;7.604;2023-12-14T08:42:44;17.20;;;10.57;;
41343;SDS011;27089;50.022;7.604;2023-12-14T08:45:13;17.17;;;10.47;;
41343;SDS011;27089;50.022;7.604;2023-12-14T08:47:40;15.90;;;9.20;;
41343;SDS011;27089;50.022;7.604;2023-12-14T08:50:08;15.83;;;10.10;;
41343;SDS011;27089;50.022;7.604;2023-12-14T08:52:35;14.67;;;9.53;;
41343;SDS011;27089;50.022;7.604;2023-12-14T08:55:02;12.73;;;8.20;;
41343;SDS011;27089;50.022;7.604;2023-12-14T08:57:30;13.13;;;8.53;;
41343;SDS011;27089;50.022;7.604;2023-12-14T08:59:58;14.70;;;8.83;;
41343;SDS011;27089;50.022;7.604;2023-12-14T09:02:25;13.17;;;7.80;;
41343;SDS011;27089;50.022;7.604;2023-12-14T09:04:52;10.70;;;6.87;;
41343;SDS011;27089;50.022;7.604;2023-12-14T09:07:19;11.43;;;7.40;;
41343;SDS011;27089;50.022;7.604;2023-12-14T09:09:46;13.47;;;7.83;;
41343;SDS011;27089;50.022;7.604;2023-12-14T09:12:13;12.97;;;8.00;;
41343;SDS011;27089;50.022;7.604;2023-12-14T09:14:40;13.17;;;8.47;;
41343;SDS011;27089;50.022;7.604;2023-12-14T09:17:08;13.53;;;9.90;;
41343;SDS011;27089;50.022;7.604;2023-12-14T09:19:35;13.40;;;8.57;;
41343;SDS011;27089;50.022;7.604;2023-12-14T09:22:02;16.60;;;9.90;;
41343;SDS011;27089;50.022;7.604;2023-12-14T09:24:29;18.47;;;10.37;;
41343;SDS011;27089;50.022;7.604;2023-12-14T09:26:56;17.87;;;10.83;;
41343;SDS011;27089;50.022;7.604;2023-12-14T09:29:23;17.87;;;10.97;;
41343;SDS011;27089;50.022;7.604;2023-12-14T09:31:50;17.90;;;12.00;;
41343;SDS011;27089;50.022;7.604;2023-12-14T09:34:19;19.33;;;11.60;;
41343;SDS011;27089;50.022;7.604;2023-12-14T09:36:45;18.57;;;11.03;;
41343;SDS011;27089;50.022;7.604;2023-12-14T09:39:12;17.63;;;11.97;;
41343;SDS011;27089;50.022;7.604;2023-12-14T09:41:40;15.47;;;10.43;;
41343;SDS011;27089;50.022;7.604;2023-12-14T09:44:08;17.57;;;11.57;;
41343;SDS011;27089;50.022;7.604;2023-12-14T09:46:36;19.43;;;11.87;;
41343;SDS011;27089;50.022;7.604;2023-12-14T09:49:06;16.53;;;9.47;;
41343;SDS011;27089;50.022;7.604;2023-12-14T09:51:35;17.67;;;10.73;;
41343;SDS011;27089;50.022;7.604;2023-12-14T09:54:02;14.07;;;9.03;;
41343;SDS011;27089;50.022;7.604;2023-12-14T09:56:29;18.83;;;12.33;;
41343;SDS011;27089;50.022;7.604;2023-12-14T09:58:57;15.37;;;9.83;;
41343;SDS011;27089;50.022;7.604;2023-12-14T10:01:27;15.37;;;10.10;;
41343;SDS011;27089;50.022;7.604;2023-12-14T10:04:07;15.77;;;9.70;;
41343;SDS011;27089;50.022;7.604;2023-12-14T10:06:36;15.47;;;9.10;;
41343;SDS011;27089;50.022;7.604;2023-12-14T10:09:04;13.17;;;8.27;;
41343;SDS011;27089;50.022;7.604;2023-12-14T10:11:34;14.67;;;8.47;;
41343;SDS011;27089;50.022;7.604;2023-12-14T10:14:01;12.67;;;8.47;;
41343;SDS011;27089;50.022;7.604;2023-12-14T10:16:29;12.30;;;8.20;;
41343;SDS011;27089;50.022;7.604;2023-12-14T10:18:57;12.80;;;7.43;;
41343;SDS011;27089;50.022;7.604;2023-12-14T10:21:27;11.23;;;7.63;;
41343;SDS011;27089;50.022;7.604;2023-12-14T10:23:56;11.27;;;7.00;;
41343;SDS011;27089;50.022;7.604;2023-12-14T10:26:24;9.40;;;5.50;;
41343;SDS011;27089;50.022;7.604;2023-12-14T10:28:52;10.97;;;6.60;;
41343;SDS011;27089;50.022;7.604;2023-12-14T10:31:19;9.47;;;6.30;;
41343;SDS011;27089;50.022;7.604;2023-12-14T10:33:46;10.17;;;6.07;;
41343;SDS011;27089;50.022;7.604;2023-12-14T10:36:15;8.10;;;5.30;;
41343;SDS011;27089;50.022;7.604;2023-12-14T10:38:46;6.57;;;4.67;;
41343;SDS011;27089;50.022;7.604;2023-12-14T10:41:16;7.30;;;4.60;;
41343;SDS011;27089;50.022;7.604;2023-12-14T10:43:43;8.97;;;5.50;;
41343;SDS011;27089;50.022;7.604;2023-12-14T10:46:13;8.60;;;5.10;;
41343;SDS011;27089;50.022;7.604;2023-12-14T10:48:40;8.27;;;4.53;;
41343;SDS011;27089;50.022;7.604;2023-12-14T10:51:10;10.57;;;4.87;;
41343;SDS011;27089;50.022;7.604;2023-12-14T10:53:38;8.33;;;5.07;;
41343;SDS011;27089;50.022;7.604;2023-12-14T10:56:06;7.70;;;4.83;;
41343;SDS011;27089;50.022;7.604;2023-12-14T10:58:45;9.00;;;5.27;;
41343;SDS011;27089;50.022;7.604;2023-12-14T11:01:13;8.27;;;5.47;;
41343;SDS011;27089;50.022;7.604;2023-12-14T11:03:42;7.87;;;5.30;;
41343;SDS011;27089;50.022;7.604;2023-12-14T11:06:19;7.90;;;4.97;;
41343;SDS011;27089;50.022;7.604;2023-12-14T11:08:48;10.73;;;6.43;;
41343;SDS011;27089;50.022;7.604;2023-12-14T11:11:17;8.17;;;4.60;;
41343;SDS011;27089;50.022;7.604;2023-12-14T11:13:47;5.33;;;3.87;;
41343;SDS011;27089;50.022;7.604;2023-12-14T11:16:19;6.43;;;4.30;;
41343;SDS011;27089;50.022;7.604;2023-12-14T11:18:47;6.03;;;4.13;;
41343;SDS011;27089;50.022;7.604;2023-12-14T11:21:17;5.97;;;4.20;;
41343;SDS011;27089;50.022;7.604;2023-12-14T11:23:47;6.70;;;3.77;;
41343;SDS011;27089;50.022;7.604;2023-12-14T11:26:20;7.57;;;4.23;;
41343;SDS011;27089;50.022;7.604;2023-12-14T11:28:49;7.03;;;4.20;;
41343;SDS011;27089;50.022;7.604;2023-12-14T11:31:16;6.67;;;4.07;;
41343;SDS011;27089;50.022;7.604;2023-12-14T11:33:44;6.07;;;4.40;;
41343;SDS011;27089;50.022;7.604;2023-12-14T11:36:12;6.17;;;4.40;;
41343;SDS011;27089;50.022;7.604;2023-12-14T11:38:42;8.30;;;4.73;;
41343;SDS011;27089;50.022;7.604;2023-12-14T11:41:09;5.93;;;3.83;;
41343;SDS011;27089;50.022;7.604;2023-12-14T11:43:40;6.13;;;4.20;;
41343;SDS011;27089;50.022;7.604;2023-12-14T11:46:08;6.30;;;4.20;;
41343;SDS011;27089;50.022;7.604;2023-12-14T11:48:35;6.90;;;3.90;;
41343;SDS011;27089;50.022;7.604;2023-12-14T11:51:02;5.13;;;3.50;;
41343;SDS011;27089;50.022;7.604;2023-12-14T11:53:30;6.03;;;3.87;;
41343;SDS011;27089;50.022;7.604;2023-12-14T11:55:58;4.63;;;3.50;;
41343;SDS011;27089;50.022;7.604;2023-12-14T11:58:27;6.20;;;3.97;;
41343;SDS011;27089;50.022;7.604;2023-12-14T12:00:54;5.53;;;3.73;;
41343;SDS011;27089;50.022;7.604;2023-12-14T12:03:23;6.23;;;3.67;;
41343;SDS011;27089;50.022;7.604;2023-12-14T12:05:50;6.10;;;3.50;;
41343;SDS011;27089;50.022;7.604;2023-12-14T12:08:18;5.73;;;3.83;;
41343;SDS011;27089;50.022;7.604;2023-12-14T12:10:46;6.43;;;3.97;;
41343;SDS011;27089;50.022;7.604;2023-12-14T12:13:14;5.07;;;3.63;;
41343;SDS011;27089;50.022;7.604;2023-12-14T12:15:42;6.27;;;3.70;;
41343;SDS011;27089;50.022;7.604;2023-12-14T12:18:09;5.50;;;3.73;;
41343;SDS011;27089;50.022;7.604;2023-12-14T12:20:40;5.23;;;3.67;;
41343;SDS011;27089;50.022;7.604;2023-12-14T12:23:07;5.83;;;3.50;;
41343;SDS011;27089;50.022;7.604;2023-12-14T12:25:34;6.23;;;3.77;;
41343;SDS011;27089;50.022;7.604;2023-12-14T12:28:02;6.03;;;4.03;;
41343;SDS011;27089;50.022;7.604;2023-12-14T12:30:29;6.93;;;3.63;;
41343;SDS011;27089;50.022;7.604;2023-12-14T12:32:56;5.07;;;3.23;;
41343;SDS011;27089;50.022;7.604;2023-12-14T12:35:23;4.70;;;3.53;;
41343;SDS011;27089;50.022;7.604;2023-12-14T12:37:52;4.63;;;3.33;;
41343;SDS011;27089;50.022;7.604;2023-12-14T12:40:19;4.37;;;3.20;;
41343;SDS011;27089;50.022;7.604;2023-12-14T12:42:47;5.63;;;3.90;;
41343;SDS011;27089;50.022;7.604;2023-12-14T12:45:14;6.67;;;3.90;;
41343;SDS011;27089;50.022;7.604;2023-12-14T12:47:42;6.33;;;4.10;;
41343;SDS011;27089;50.022;7.604;2023-12-14T12:50:10;4.83;;;3.00;;
41343;SDS011;27089;50.022;7.604;2023-12-14T12:52:37;5.83;;;2.93;;
41343;SDS011;27089;50.022;7.604;2023-12-14T12:55:06;3.73;;;2.47;;
41343;SDS011;27089;50.022;7.604;2023-12-14T12:57:34;4.33;;;2.50;;
41343;SDS011;27089;50.022;7.604;2023-12-14T13:00:01;3.97;;;2.40;;
41343;SDS011;27089;50.022;7.604;2023-12-14T13:02:33;4.00;;;2.27;;
41343;SDS011;27089;50.022;7.604;2023-12-14T13:05:00;6.17;;;2.70;;
41343;SDS011;27089;50.022;7.604;2023-12-14T13:07:27;3.80;;;2.50;;
41343;SDS011;27089;50.022;7.604;2023-12-14T13:09:53;4.13;;;2.50;;
41343;SDS011;27089;50.022;7.604;2023-12-14T13:12:22;3.33;;;2.33;;
41343;SDS011;27089;50.022;7.604;2023-12-14T13:14:49;4.70;;;3.13;;
41343;SDS011;27089;50.022;7.604;2023-12-14T13:17:16;4.00;;;3.50;;
41343;SDS011;27089;50.022;7.604;2023-12-14T13:19:43;4.27;;;3.37;;
41343;SDS011;27089;50.022;7.604;2023-12-14T13:22:10;4.07;;;3.10;;
41343;SDS011;27089;50.022;7.604;2023-12-14T13:24:37;3.23;;;2.40;;
41343;SDS011;27089;50.022;7.604;2023-12-14T13:27:05;2.47;;;1.80;;
41343;SDS011;27089;50.022;7.604;2023-12-14T13:29:33;2.80;;;2.00;;
41343;SDS011;27089;50.022;7.604;2023-12-14T13:32:00;3.33;;;2.63;;
41343;SDS011;27089;50.022;7.604;2023-12-14T13:34:27;2.67;;;2.00;;
41343;SDS011;27089;50.022;7.604;2023-12-14T13:36:54;2.23;;;1.80;;
41343;SDS011;27089;50.022;7.604;2023-12-14T13:39:22;3.57;;;2.10;;
41343;SDS011;27089;50.022;7.604;2023-12-14T13:41:49;2.73;;;2.00;;
41343;SDS011;27089;50.022;7.604;2023-12-14T13:44:16;4.33;;;3.87;;
41343;SDS011;27089;50.022;7.604;2023-12-14T13:46:44;3.33;;;2.40;;
41343;SDS011;27089;50.022;7.604;2023-12-14T13:49:11;4.27;;;2.37;;
41343;SDS011;27089;50.022;7.604;2023-12-14T13:51:38;3.53;;;2.87;;
41343;SDS011;27089;50.022;7.604;2023-12-14T13:54:05;4.20;;;3.20;;
41343;SDS011;27089;50.022;7.604;2023-12-14T13:56:32;3.70;;;2.77;;
41343;SDS011;27089;50.022;7.604;2023-12-14T13:58:59;2.73;;;1.77;;
41343;SDS011;27089;50.022;7.604;2023-12-14T14:01:26;3.07;;;2.17;;
41343;SDS011;27089;50.022;7.604;2023-12-14T14:03:54;1.97;;;1.63;;
41343;SDS011;27089;50.022;7.604;2023-12-14T14:06:21;1.70;;;1.40;;
41343;SDS011;27089;50.022;7.604;2023-12-14T14:08:48;1.90;;;1.47;;
41343;SDS011;27089;50.022;7.604;2023-12-14T14:11:15;2.03;;;1.37;;
41343;SDS011;27089;50.022;7.604;2023-12-14T14:13:42;1.57;;;1.40;;
41343;SDS011;27089;50.022;7.604;2023-12-14T14:16:09;2.77;;;1.53;;
41343;SDS011;27089;50.022;7.604;2023-12-14T14:18:36;1.60;;;1.00;;
41343;SDS011;27089;50.022;7.604;2023-12-14T14:21:04;2.93;;;1.50;;
41343;SDS011;27089;50.022;7.604;2023-12-14T14:23:33;1.70;;;1.20;;
41343;SDS011;27089;50.022;7.604;2023-12-14T14:26:00;1.40;;;1.13;;
41343;SDS011;27089;50.022;7.604;2023-12-14T14:28:27;2.00;;;1.40;;
41343;SDS011;27089;50.022;7.604;2023-12-14T14:30:54;4.97;;;4.53;;
41343;SDS011;27089;50.022;7.604;2023-12-14T14:33:21;3.07;;;1.90;;
41343;SDS011;27089;50.022;7.604;2023-12-14T14:35:48;86.47;;;51.27;;
41343;SDS011;27089;50.022;7.604;2023-12-14T14:38:18;8.37;;;5.03;;